Buffalo Center, Iowa
Current Conditions -  °F | °C
As of 2:10 PM on Wednesday 26 Nov 2014 (Local Time) from KFXY Reporting Station
Light Snow Light Snow  
Wind Chill: 16°   Ceiling: 1100
Heat Index: 27°   Visibility: 1mi
Dew Point: 25°   Wind: 12mph
Humidity: 93%   Direction: 30°NNE
Pressure: 30.12"   Gusts: NA
Location:  43.39°N, 93.95°W
Report Text: KFXY 262010Z AUTO 03010KT 1SM -SN OVC011 M03/M04 A3012 RMK AO2
Loading
Personal Weather Stations






























Interactive Weather Map New forecast layout! Learn more

10-Day Weather Forecast

Advertisements
Track Severe Weather on mobile